createdAt,value
2023-03-04T00:02:45.472Z,0.00
2023-03-04T00:12:38.504Z,0.00
2023-03-04T00:22:38.755Z,0.00
2023-03-04T00:32:38.843Z,0.00
2023-03-04T00:42:38.909Z,0.00
2023-03-04T00:52:39.147Z,0.00
2023-03-04T01:02:42.472Z,0.00
2023-03-04T01:12:39.506Z,0.00
2023-03-04T01:22:39.868Z,0.00
2023-03-04T01:32:39.888Z,0.00
2023-03-04T01:42:40.229Z,0.00
2023-03-04T01:52:40.262Z,0.00
2023-03-04T02:02:40.607Z,0.00
2023-03-04T02:12:40.646Z,0.00
2023-03-04T02:22:40.985Z,0.00
2023-03-04T02:32:41.007Z,0.00
2023-03-04T02:42:41.442Z,0.00
2023-03-04T02:52:41.473Z,0.00
2023-03-04T03:02:41.834Z,0.00
2023-03-04T03:12:41.856Z,0.00
2023-03-04T03:22:42.182Z,0.00
2023-03-04T03:32:42.244Z,0.00
2023-03-04T03:42:42.545Z,0.00
2023-03-04T03:52:42.592Z,0.00
2023-03-04T04:02:43.044Z,0.00
2023-03-04T04:12:42.948Z,0.00
2023-03-04T04:22:43.292Z,0.00
2023-03-04T04:32:43.340Z,0.00
2023-03-04T04:42:43.660Z,0.00
2023-03-04T04:52:43.689Z,0.00
2023-03-04T05:02:43.936Z,0.00
2023-03-04T05:12:44.166Z,0.00
2023-03-04T05:22:44.518Z,0.00
2023-03-04T05:32:44.551Z,0.00
2023-03-04T05:42:44.881Z,0.00
2023-03-04T05:52:44.909Z,8.00
2023-03-04T06:02:45.307Z,20.00
2023-03-04T06:12:45.361Z,40.00
2023-03-04T06:22:46.641Z,68.00
2023-03-04T06:32:45.699Z,92.00
2023-03-04T06:42:45.984Z,128.00
2023-03-04T06:52:46.024Z,208.00
2023-03-04T07:02:46.366Z,292.00
2023-03-04T07:12:46.395Z,332.00
2023-03-04T07:22:46.732Z,312.00
2023-03-04T07:32:46.843Z,336.00
2023-03-04T07:42:46.902Z,416.00
2023-03-04T07:52:47.124Z,532.00
2023-03-04T08:02:47.462Z,576.00
2023-03-04T08:12:47.514Z,488.00
2023-03-04T08:22:47.749Z,440.00
2023-03-04T08:32:48.052Z,544.00
2023-03-04T08:42:48.074Z,584.00
2023-03-04T08:52:48.311Z,816.00
2023-03-04T09:02:48.580Z,904.00
2023-03-04T09:12:48.822Z,1016.00
2023-03-04T09:22:49.173Z,1432.00
2023-03-04T09:32:49.216Z,1312.00
2023-03-04T09:42:49.539Z,2548.00
2023-03-04T09:52:49.581Z,2080.00
2023-03-04T10:02:49.910Z,2552.00
2023-03-04T10:12:49.951Z,2780.00
2023-03-04T10:22:50.265Z,2848.00
2023-03-04T10:32:50.306Z,3000.00
2023-03-04T10:42:50.658Z,3064.00
2023-03-04T10:52:50.690Z,2916.00
2023-03-04T11:02:50.989Z,3264.00
2023-03-04T11:12:51.027Z,3360.00
2023-03-04T11:22:51.359Z,3328.00
2023-03-04T11:32:51.436Z,3476.00
2023-03-04T11:42:51.750Z,3340.00
2023-03-04T11:52:51.776Z,3476.00
2023-03-04T12:02:52.012Z,3524.00
2023-03-04T12:12:52.242Z,3536.00
2023-03-04T12:22:55.553Z,3552.00
2023-03-04T12:32:52.592Z,3508.00
2023-03-04T12:42:52.852Z,3576.00
2023-03-04T12:52:52.910Z,3596.00
2023-03-04T13:02:54.146Z,3636.00
2023-03-04T13:12:53.488Z,3504.00
2023-03-04T13:22:53.570Z,3404.00
2023-03-04T13:32:53.604Z,3280.00
2023-03-04T13:42:55.047Z,3236.00
2023-03-04T13:52:54.103Z,3160.00
2023-03-04T14:02:54.343Z,3096.00
2023-03-04T14:12:54.400Z,3068.00
2023-03-04T14:22:54.715Z,2972.00
2023-03-04T14:32:54.931Z,2760.00
2023-03-04T14:42:56.105Z,2672.00
2023-03-04T14:52:55.133Z,2532.00
2023-03-04T15:02:55.570Z,2324.00
2023-03-04T15:12:55.629Z,2052.00
2023-03-04T15:22:56.184Z,1744.00
2023-03-04T15:32:56.271Z,1660.00
2023-03-04T15:42:56.617Z,1448.00
2023-03-04T15:52:56.656Z,516.00
2023-03-04T16:02:56.776Z,412.00
2023-03-04T16:12:56.826Z,332.00
2023-03-04T16:22:57.143Z,252.00
2023-03-04T16:32:57.184Z,180.00
2023-03-04T16:42:58.437Z,116.00
2023-03-04T16:52:57.933Z,64.00
2023-03-04T17:02:58.222Z,32.00
2023-03-04T17:12:58.137Z,16.00
2023-03-04T17:22:58.526Z,4.00
2023-03-04T17:32:58.587Z,0.00
2023-03-04T17:43:00.113Z,0.00
2023-03-04T17:53:03.300Z,0.00
2023-03-04T18:03:00.417Z,0.00
2023-03-04T18:12:59.598Z,0.00
2023-03-04T18:22:59.759Z,0.00
2023-03-04T18:33:00.006Z,0.00
2023-03-04T18:43:00.255Z,0.00
2023-03-04T18:53:00.415Z,0.00
2023-03-04T19:03:00.414Z,0.00
2023-03-04T19:13:00.653Z,0.00
2023-03-04T19:23:00.854Z,0.00
2023-03-04T19:33:04.496Z,0.00
2023-03-04T19:43:01.228Z,0.00
2023-03-04T19:53:01.401Z,0.00
2023-03-04T20:03:01.325Z,0.00
2023-03-04T20:13:04.896Z,0.00
2023-03-04T20:23:02.005Z,0.00
2023-03-04T20:33:02.219Z,0.00
2023-03-04T20:43:02.164Z,0.00
2023-03-04T20:53:05.711Z,0.00
2023-03-04T21:03:03.588Z,0.00
2023-03-04T21:13:02.815Z,0.00
2023-03-04T21:23:03.099Z,0.00
2023-03-04T21:33:05.355Z,0.00
2023-03-04T21:43:03.109Z,0.00
2023-03-04T21:53:03.470Z,0.00
2023-03-04T22:03:04.497Z,0.00
2023-03-04T22:13:03.643Z,0.00
2023-03-04T22:23:04.068Z,0.00
2023-03-04T22:33:07.406Z,0.00
2023-03-04T22:43:04.245Z,0.00
2023-03-04T22:53:04.610Z,0.00
2023-03-04T23:03:04.630Z,0.00
2023-03-04T23:13:05.878Z,0.00
2023-03-04T23:23:05.114Z,0.00
2023-03-04T23:33:05.457Z,0.00
2023-03-04T23:43:05.546Z,0.00
2023-03-04T23:53:05.709Z,0.00
